createdAt,value
2022-10-05T00:00:01.424Z,100.00
2022-10-05T00:03:12.943Z,100.00
2022-10-05T00:06:19.823Z,100.00
2022-10-05T00:09:31.523Z,100.00
2022-10-05T00:12:39.641Z,100.00
2022-10-05T00:15:47.328Z,100.00
2022-10-05T00:19:00.978Z,100.00
2022-10-05T00:22:11.790Z,100.00
2022-10-05T00:25:23.134Z,100.00
2022-10-05T00:28:33.591Z,100.00
2022-10-05T00:31:41.535Z,100.00
2022-10-05T00:34:50.294Z,100.00
2022-10-05T00:37:59.498Z,100.00
2022-10-05T00:41:24.722Z,100.00
2022-10-05T00:44:37.985Z,100.00
2022-10-05T00:47:55.669Z,100.00
2022-10-05T00:51:31.348Z,100.00
2022-10-05T00:54:50.062Z,100.00
2022-10-05T00:57:58.437Z,100.00
2022-10-05T01:01:15.505Z,100.00
2022-10-05T01:05:12.637Z,100.00
2022-10-05T01:08:40.094Z,100.00
2022-10-05T01:12:15.875Z,100.00
2022-10-05T01:15:29.692Z,100.00
2022-10-05T01:18:52.457Z,100.00
2022-10-05T01:22:09.974Z,100.00
2022-10-05T01:25:41.210Z,100.00
2022-10-05T01:28:58.494Z,100.00
2022-10-05T01:32:25.550Z,100.00
2022-10-05T01:35:53.313Z,100.00
2022-10-05T01:39:17.126Z,100.00
2022-10-05T01:42:57.804Z,100.00
2022-10-05T01:46:22.662Z,100.00
2022-10-05T01:49:57.169Z,100.00
2022-10-05T01:53:27.296Z,100.00
2022-10-05T01:56:42.881Z,100.00
2022-10-05T02:00:19.030Z,100.00
2022-10-05T02:03:52.770Z,100.00
2022-10-05T02:07:03.220Z,100.00
2022-10-05T02:10:34.313Z,100.00
2022-10-05T02:13:54.729Z,100.00
2022-10-05T02:17:10.296Z,100.00
2022-10-05T02:20:28.073Z,100.00
2022-10-05T02:23:38.679Z,100.00
2022-10-05T02:26:49.467Z,100.00
2022-10-05T02:29:58.265Z,100.00
2022-10-05T02:33:22.851Z,100.00
2022-10-05T02:36:37.360Z,100.00
2022-10-05T02:40:00.238Z,100.00
2022-10-05T02:43:13.484Z,100.00
2022-10-05T02:46:32.871Z,100.00
2022-10-05T02:50:17.132Z,100.00
2022-10-05T02:53:28.537Z,100.00
2022-10-05T02:56:49.547Z,100.00
2022-10-05T03:00:06.091Z,100.00
2022-10-05T03:03:38.358Z,100.00
2022-10-05T03:07:18.035Z,100.00
2022-10-05T03:10:42.463Z,100.00
2022-10-05T03:14:14.147Z,100.00
2022-10-05T03:17:31.480Z,100.00
2022-10-05T03:21:01.377Z,100.00
2022-10-05T03:24:13.969Z,100.00
2022-10-05T03:27:47.104Z,100.00
2022-10-05T03:31:17.218Z,100.00
2022-10-05T03:35:01.456Z,100.00
2022-10-05T03:38:27.327Z,100.00
2022-10-05T03:41:49.453Z,100.00
2022-10-05T03:45:24.301Z,100.00
2022-10-05T03:48:35.954Z,100.00
2022-10-05T03:52:15.865Z,100.00
2022-10-05T03:55:37.251Z,100.00
2022-10-05T03:58:52.183Z,100.00
2022-10-05T04:02:09.206Z,100.00
2022-10-05T04:05:20.059Z,100.00
2022-10-05T04:09:13.103Z,100.00
2022-10-05T04:12:43.719Z,100.00
2022-10-05T04:16:04.759Z,100.00
2022-10-05T04:19:29.995Z,100.00
2022-10-05T04:22:42.250Z,100.00
2022-10-05T04:26:01.653Z,100.00
2022-10-05T04:29:18.246Z,100.00
2022-10-05T04:32:45.389Z,100.00
2022-10-05T04:36:03.343Z,100.00
2022-10-05T04:40:08.160Z,100.00
2022-10-05T04:43:42.996Z,100.00
2022-10-05T04:46:58.880Z,100.00
2022-10-05T04:50:29.709Z,100.00
2022-10-05T04:53:58.648Z,100.00
2022-10-05T04:57:12.175Z,100.00
2022-10-05T05:00:26.294Z,100.00
2022-10-05T05:04:10.802Z,100.00
2022-10-05T05:07:36.367Z,100.00
2022-10-05T05:10:52.055Z,100.00
2022-10-05T05:14:00.580Z,100.00
2022-10-05T05:17:35.896Z,100.00
2022-10-05T05:21:04.668Z,100.00
2022-10-05T05:24:38.991Z,100.00
2022-10-05T05:27:54.620Z,100.00
2022-10-05T05:31:10.941Z,100.00
2022-10-05T05:34:46.089Z,100.00
2022-10-05T05:38:03.173Z,100.00
2022-10-05T05:41:12.814Z,100.00
2022-10-05T05:44:26.989Z,100.00
2022-10-05T05:47:37.939Z,100.00
2022-10-05T05:51:06.056Z,100.00
2022-10-05T05:54:39.726Z,100.00
2022-10-05T05:57:56.901Z,100.00
2022-10-05T06:01:33.411Z,100.00
2022-10-05T06:04:46.165Z,100.00
2022-10-05T06:07:53.001Z,100.00
2022-10-05T06:11:14.883Z,100.00
2022-10-05T06:14:37.771Z,100.00
2022-10-05T06:17:47.815Z,100.00
2022-10-05T06:21:00.141Z,100.00
2022-10-05T06:24:16.178Z,100.00
2022-10-05T06:27:37.457Z,100.00
2022-10-05T06:30:47.623Z,100.00
2022-10-05T06:33:54.130Z,100.00
2022-10-05T06:37:09.469Z,100.00
2022-10-05T06:40:22.191Z,100.00
2022-10-05T06:43:39.107Z,100.00
2022-10-05T06:47:04.470Z,100.00
2022-10-05T06:50:18.634Z,100.00
2022-10-05T06:53:39.015Z,100.00
2022-10-05T06:56:52.623Z,100.00
2022-10-05T07:00:15.789Z,100.00
2022-10-05T07:03:50.268Z,100.00
2022-10-05T07:06:59.948Z,100.00
2022-10-05T07:10:17.592Z,100.00
2022-10-05T07:13:20.983Z,100.00
2022-10-05T07:16:43.631Z,100.00
2022-10-05T07:19:58.193Z,100.00
2022-10-05T07:23:40.890Z,100.00
2022-10-05T07:26:57.368Z,100.00
2022-10-05T07:30:08.171Z,100.00
2022-10-05T07:33:21.326Z,100.00
2022-10-05T07:37:10.004Z,92.89
2022-10-05T07:40:25.928Z,80.98
2022-10-05T07:44:02.104Z,70.85
2022-10-05T07:47:31.299Z,65.21
2022-10-05T07:50:49.437Z,56.36
2022-10-05T07:54:10.512Z,55.70
2022-10-05T07:57:39.616Z,55.24
2022-10-05T08:00:48.470Z,54.32
2022-10-05T08:03:56.429Z,52.54
2022-10-05T08:07:05.026Z,49.49
2022-10-05T08:10:15.229Z,48.63
2022-10-05T08:13:30.424Z,43.87
2022-10-05T08:16:38.936Z,45.82
2022-10-05T08:19:59.670Z,43.40
2022-10-05T08:23:19.979Z,39.84
2022-10-05T08:26:31.750Z,38.56
2022-10-05T08:30:07.462Z,45.50
2022-10-05T08:33:17.846Z,44.66
2022-10-05T08:36:44.073Z,52.56
2022-10-05T08:40:16.191Z,59.02
2022-10-05T08:43:55.754Z,62.77
2022-10-05T08:47:13.043Z,65.01
2022-10-05T08:50:42.320Z,69.85
2022-10-05T08:53:55.751Z,69.07
2022-10-05T08:57:12.477Z,72.79
2022-10-05T09:00:21.492Z,72.60
2022-10-05T09:03:51.123Z,74.48
2022-10-05T09:07:05.980Z,76.03
2022-10-05T09:10:40.337Z,73.52
2022-10-05T09:14:04.885Z,74.94
2022-10-05T09:17:39.509Z,74.03
2022-10-05T09:21:22.175Z,73.70
2022-10-05T09:24:55.737Z,75.92
2022-10-05T09:28:23.716Z,72.12
2022-10-05T09:31:36.397Z,72.87
2022-10-05T09:34:55.708Z,71.55
2022-10-05T09:38:26.413Z,69.89
2022-10-05T09:41:45.227Z,70.47
2022-10-05T09:45:21.233Z,70.88
2022-10-05T09:49:12.094Z,67.13
2022-10-05T09:52:54.627Z,68.45
2022-10-05T09:56:20.673Z,65.71
2022-10-05T09:59:29.570Z,67.14
2022-10-05T10:03:15.360Z,69.44
2022-10-05T10:06:57.171Z,69.98
2022-10-05T10:10:32.670Z,72.02
2022-10-05T10:13:53.834Z,71.55
2022-10-05T10:16:58.176Z,71.07
2022-10-05T10:20:12.882Z,69.97
2022-10-05T10:23:17.009Z,69.14
2022-10-05T10:26:50.973Z,69.23
2022-10-05T10:30:12.351Z,67.73
2022-10-05T10:33:40.731Z,65.64
2022-10-05T10:37:07.493Z,65.82
2022-10-05T10:40:36.324Z,66.40
2022-10-05T10:44:12.855Z,66.79
2022-10-05T10:47:35.074Z,66.30
2022-10-05T10:51:06.526Z,65.58
2022-10-05T10:54:28.087Z,63.92
2022-10-05T10:58:01.912Z,59.63
2022-10-05T11:01:12.611Z,59.34
2022-10-05T11:04:21.878Z,59.65
2022-10-05T11:07:31.345Z,53.10
2022-10-05T11:10:54.855Z,54.11
2022-10-05T11:14:03.067Z,54.86
2022-10-05T11:17:15.635Z,51.06
2022-10-05T11:20:24.682Z,47.21
2022-10-05T11:23:46.407Z,43.30
2022-10-05T11:27:12.980Z,41.60
2022-10-05T11:30:23.172Z,42.46
2022-10-05T11:33:32.726Z,41.88
2022-10-05T11:36:58.801Z,39.57
2022-10-05T11:40:42.743Z,39.43
2022-10-05T11:43:49.940Z,41.32
2022-10-05T11:47:22.172Z,43.91
2022-10-05T11:51:06.949Z,39.74
2022-10-05T11:54:38.270Z,41.52
2022-10-05T11:57:51.331Z,39.82
2022-10-05T12:01:05.457Z,40.89
2022-10-05T12:04:43.114Z,45.17
2022-10-05T12:08:06.450Z,44.47
2022-10-05T12:11:33.680Z,44.00
2022-10-05T12:15:02.250Z,46.34
2022-10-05T12:18:18.786Z,45.55
2022-10-05T12:21:39.668Z,46.93
2022-10-05T12:25:02.924Z,50.01
2022-10-05T12:28:17.374Z,53.14
2022-10-05T12:31:30.317Z,54.27
2022-10-05T12:35:01.737Z,56.22
2022-10-05T12:38:17.224Z,55.13
2022-10-05T12:41:29.070Z,55.15
2022-10-05T12:45:00.435Z,58.40
2022-10-05T12:48:37.710Z,59.81
2022-10-05T12:51:50.636Z,60.05
2022-10-05T12:55:22.031Z,57.13
2022-10-05T12:58:47.636Z,59.53
2022-10-05T13:01:50.923Z,58.75
2022-10-05T13:05:23.774Z,57.00
2022-10-05T13:08:38.349Z,59.48
2022-10-05T13:11:52.388Z,59.27
2022-10-05T13:15:18.465Z,57.51
2022-10-05T13:18:38.715Z,58.32
2022-10-05T13:21:58.178Z,57.91
2022-10-05T13:25:26.563Z,57.07
2022-10-05T13:28:50.315Z,55.74
2022-10-05T13:31:57.455Z,55.70
2022-10-05T13:35:25.823Z,56.97
2022-10-05T13:38:34.604Z,54.20
2022-10-05T13:42:05.145Z,54.13
2022-10-05T13:45:22.686Z,55.15
2022-10-05T13:48:55.131Z,55.68
2022-10-05T13:52:15.674Z,55.57
2022-10-05T13:55:29.823Z,57.48
2022-10-05T13:58:51.159Z,56.04
2022-10-05T14:02:05.828Z,58.81
2022-10-05T14:05:23.526Z,57.67
2022-10-05T14:08:35.925Z,58.88
2022-10-05T14:12:06.264Z,58.70
2022-10-05T14:15:31.913Z,59.84
2022-10-05T14:18:39.456Z,60.26
2022-10-05T14:22:06.753Z,60.14
2022-10-05T14:25:20.270Z,62.75
2022-10-05T14:28:31.850Z,60.80
2022-10-05T14:31:38.070Z,59.75
2022-10-05T14:34:55.587Z,60.73
2022-10-05T14:38:03.194Z,62.19
2022-10-05T14:41:28.606Z,63.84
2022-10-05T14:47:46.679Z,62.57
2022-10-05T14:51:03.475Z,63.50
2022-10-05T14:54:34.858Z,64.34
2022-10-05T14:57:57.686Z,64.79
2022-10-05T15:01:21.073Z,65.02
2022-10-05T15:04:33.248Z,66.97
2022-10-05T15:07:44.919Z,65.33
2022-10-05T15:10:58.219Z,66.62
2022-10-05T15:14:06.898Z,65.18
2022-10-05T15:17:20.508Z,66.29
2022-10-05T15:20:53.958Z,68.17
2022-10-05T15:24:06.231Z,67.94
2022-10-05T15:27:24.833Z,67.76
2022-10-05T15:30:35.140Z,67.39
2022-10-05T15:33:55.601Z,68.77
2022-10-05T15:37:36.597Z,68.81
2022-10-05T15:41:23.348Z,69.25
2022-10-05T15:44:31.939Z,71.30
2022-10-05T15:47:57.894Z,70.43
2022-10-05T15:51:30.187Z,71.42
2022-10-05T15:54:50.915Z,71.53
2022-10-05T15:58:13.112Z,72.90
2022-10-05T16:01:19.893Z,73.63
2022-10-05T16:04:48.652Z,76.11
2022-10-05T16:08:13.413Z,76.76
2022-10-05T16:11:43.284Z,77.06
2022-10-05T16:15:16.499Z,79.25
2022-10-05T16:18:43.752Z,80.59
2022-10-05T16:22:26.902Z,81.45
2022-10-05T16:26:03.498Z,82.05
2022-10-05T16:29:22.368Z,82.18
2022-10-05T16:32:39.624Z,83.60
2022-10-05T16:35:57.600Z,85.39
2022-10-05T16:40:01.504Z,86.27
2022-10-05T16:43:46.417Z,86.24
2022-10-05T16:47:12.830Z,86.06
2022-10-05T16:50:45.060Z,87.35
2022-10-05T16:54:26.061Z,87.39
2022-10-05T16:57:37.448Z,87.87
2022-10-05T17:00:53.411Z,90.65
2022-10-05T17:04:01.804Z,90.24
2022-10-05T17:07:23.511Z,90.36
2022-10-05T17:10:34.855Z,92.06
2022-10-05T17:13:56.343Z,92.61
2022-10-05T17:17:16.346Z,94.23
2022-10-05T17:20:54.264Z,95.17
2022-10-05T17:24:26.080Z,95.75
2022-10-05T17:27:51.153Z,96.35
2022-10-05T17:31:16.897Z,96.67
2022-10-05T17:34:24.297Z,97.41
2022-10-05T17:37:36.599Z,98.20
2022-10-05T17:41:22.941Z,98.67
2022-10-05T17:44:29.582Z,99.37
2022-10-05T17:47:58.872Z,99.73
2022-10-05T17:51:35.595Z,100.00
2022-10-05T17:55:06.190Z,100.00
2022-10-05T17:58:28.655Z,100.00
2022-10-05T18:01:42.222Z,100.00
2022-10-05T18:05:13.658Z,100.00
2022-10-05T18:08:32.517Z,100.00
2022-10-05T18:11:45.643Z,100.00
2022-10-05T18:15:03.721Z,100.00
2022-10-05T18:18:36.721Z,100.00
2022-10-05T18:22:05.845Z,100.00
2022-10-05T18:25:31.894Z,100.00
2022-10-05T18:29:15.284Z,100.00
2022-10-05T18:32:55.265Z,100.00
2022-10-05T18:36:11.550Z,100.00
2022-10-05T18:39:53.503Z,100.00
2022-10-05T18:43:29.027Z,100.00
2022-10-05T18:46:48.014Z,100.00
2022-10-05T18:50:22.215Z,100.00
2022-10-05T18:53:47.511Z,100.00
2022-10-05T18:56:54.402Z,100.00
2022-10-05T19:00:09.565Z,100.00
2022-10-05T19:03:30.564Z,100.00
2022-10-05T19:06:47.298Z,100.00
2022-10-05T19:10:06.470Z,100.00
2022-10-05T19:13:35.118Z,100.00
2022-10-05T19:16:52.324Z,100.00
2022-10-05T19:20:17.607Z,100.00
2022-10-05T19:23:42.193Z,100.00
2022-10-05T19:27:04.070Z,100.00
2022-10-05T19:30:32.489Z,100.00
2022-10-05T19:33:58.694Z,100.00
2022-10-05T19:37:20.608Z,100.00
2022-10-05T19:40:34.945Z,100.00
2022-10-05T19:43:52.396Z,100.00
2022-10-05T19:47:28.722Z,100.00
2022-10-05T19:50:36.074Z,100.00
2022-10-05T19:53:47.726Z,100.00
2022-10-05T19:56:54.625Z,100.00
2022-10-05T20:00:00.755Z,100.00
2022-10-05T20:03:18.866Z,100.00
2022-10-05T20:06:28.192Z,100.00
2022-10-05T20:10:02.833Z,100.00
2022-10-05T20:13:20.982Z,100.00
2022-10-05T20:16:48.407Z,100.00
2022-10-05T20:20:12.475Z,100.00
2022-10-05T20:23:25.949Z,100.00
2022-10-05T20:27:03.584Z,100.00
2022-10-05T20:30:12.103Z,100.00
2022-10-05T20:33:17.362Z,100.00
2022-10-05T20:36:21.765Z,100.00
2022-10-05T20:39:27.075Z,100.00
2022-10-05T20:42:33.332Z,100.00
2022-10-05T20:45:44.782Z,100.00
2022-10-05T20:48:54.098Z,100.00
2022-10-05T20:52:01.224Z,100.00
2022-10-05T20:55:09.535Z,100.00
2022-10-05T20:58:18.066Z,100.00
2022-10-05T21:01:27.902Z,100.00
2022-10-05T21:04:41.982Z,100.00
2022-10-05T21:07:47.158Z,100.00
2022-10-05T21:10:53.908Z,100.00
2022-10-05T21:14:01.001Z,100.00
2022-10-05T21:17:13.109Z,100.00
2022-10-05T21:20:19.649Z,100.00
2022-10-05T21:23:26.672Z,100.00
2022-10-05T21:26:33.405Z,100.00
2022-10-05T21:29:37.421Z,100.00
2022-10-05T21:32:44.461Z,100.00
2022-10-05T21:35:50.875Z,100.00
2022-10-05T21:38:55.625Z,100.00
2022-10-05T21:42:03.859Z,100.00
2022-10-05T21:45:12.597Z,100.00
2022-10-05T21:48:20.666Z,100.00
2022-10-05T21:51:28.512Z,100.00
2022-10-05T21:54:35.808Z,100.00
2022-10-05T21:57:42.705Z,100.00
2022-10-05T22:00:53.672Z,100.00
2022-10-05T22:04:03.010Z,100.00
2022-10-05T22:07:20.365Z,100.00
2022-10-05T22:10:29.648Z,100.00
2022-10-05T22:13:44.056Z,100.00
2022-10-05T22:16:50.973Z,100.00
2022-10-05T22:19:57.946Z,100.00
2022-10-05T22:23:06.453Z,100.00
2022-10-05T22:26:19.138Z,100.00
2022-10-05T22:29:32.609Z,100.00
2022-10-05T22:32:39.983Z,100.00
2022-10-05T22:35:49.745Z,100.00
2022-10-05T22:38:58.425Z,100.00
2022-10-05T22:42:06.733Z,100.00
2022-10-05T22:45:15.933Z,100.00
2022-10-05T22:48:26.147Z,100.00
2022-10-05T22:51:33.323Z,100.00
2022-10-05T22:54:43.359Z,100.00
2022-10-05T22:57:55.195Z,100.00
2022-10-05T23:01:04.219Z,100.00
2022-10-05T23:04:11.370Z,100.00
2022-10-05T23:07:20.345Z,100.00
2022-10-05T23:10:29.519Z,100.00
2022-10-05T23:13:37.088Z,100.00
2022-10-05T23:16:44.967Z,100.00
2022-10-05T23:19:50.583Z,100.00
2022-10-05T23:22:58.187Z,100.00
2022-10-05T23:26:05.345Z,100.00
2022-10-05T23:29:10.718Z,100.00
2022-10-05T23:32:16.543Z,100.00
2022-10-05T23:35:19.796Z,100.00
2022-10-05T23:38:25.246Z,100.00
2022-10-05T23:41:34.471Z,100.00
2022-10-05T23:44:41.957Z,100.00
2022-10-05T23:47:49.278Z,100.00
2022-10-05T23:50:57.101Z,100.00
2022-10-05T23:54:06.274Z,100.00
2022-10-05T23:57:19.605Z,100.00
